createdAt,value
2019-05-19T00:01:33.805Z,100140.58
2019-05-19T00:04:04.460Z,100145.80
2019-05-19T00:06:35.148Z,100143.39
2019-05-19T00:09:06.578Z,100144.49
2019-05-19T00:11:37.154Z,100148.63
2019-05-19T00:14:07.842Z,100142.77
2019-05-19T00:16:38.439Z,100150.50
2019-05-19T00:19:09.069Z,100156.42
2019-05-19T00:21:39.642Z,100146.55
2019-05-19T00:24:10.240Z,100149.80
2019-05-19T00:26:40.821Z,100146.49
2019-05-19T00:29:11.393Z,100152.74
2019-05-19T00:31:41.971Z,100157.02
2019-05-19T00:34:12.553Z,100155.84
2019-05-19T00:36:43.150Z,100150.91
2019-05-19T00:39:13.739Z,100150.44
2019-05-19T00:41:44.370Z,100149.59
2019-05-19T00:44:14.942Z,100148.64
2019-05-19T00:46:45.581Z,100148.66
2019-05-19T00:49:17.109Z,100141.05
2019-05-19T00:51:47.775Z,100149.95
2019-05-19T00:54:18.373Z,100152.17
2019-05-19T00:56:49.949Z,100149.24
2019-05-19T00:59:21.257Z,100138.45
2019-05-19T01:01:52.041Z,100139.70
2019-05-19T01:04:22.724Z,100142.42
2019-05-19T01:06:53.321Z,100135.21
2019-05-19T01:09:23.903Z,100143.46
2019-05-19T01:11:54.471Z,100139.44
2019-05-19T01:14:25.061Z,100143.58
2019-05-19T01:16:56.746Z,100139.48
2019-05-19T01:19:27.659Z,100125.72
2019-05-19T01:22:00.777Z,100128.00
2019-05-19T01:24:31.510Z,100126.58
2019-05-19T01:27:02.093Z,100122.22
2019-05-19T01:29:32.742Z,100115.20
2019-05-19T01:32:04.858Z,100121.70
2019-05-19T01:34:35.540Z,100110.59
2019-05-19T01:37:06.121Z,100113.77
2019-05-19T01:39:36.688Z,100113.25
2019-05-19T01:42:07.286Z,100107.14
2019-05-19T01:44:37.874Z,100110.91
2019-05-19T01:47:08.454Z,100107.66
2019-05-19T01:49:39.077Z,100108.51
2019-05-19T01:52:10.737Z,100100.91
2019-05-19T01:54:41.337Z,100101.56
2019-05-19T01:57:11.994Z,100101.56
2019-05-19T01:59:42.598Z,100102.34
2019-05-19T02:02:13.284Z,100096.17
2019-05-19T02:04:43.920Z,100101.63
2019-05-19T02:07:14.467Z,100115.26
2019-05-19T02:09:45.048Z,100111.11
2019-05-19T02:12:15.631Z,100108.75
2019-05-19T02:14:46.217Z,100102.14
2019-05-19T02:17:16.791Z,100120.19
2019-05-19T02:19:47.369Z,100120.38
2019-05-19T02:22:17.949Z,100114.61
2019-05-19T02:24:48.536Z,100121.23
2019-05-19T02:27:19.143Z,100118.64
2019-05-19T02:29:49.720Z,100123.19
2019-05-19T02:32:20.300Z,100126.63
2019-05-19T02:34:51.448Z,100121.82
2019-05-19T02:37:22.033Z,100117.34
2019-05-19T02:39:52.601Z,100125.90
2019-05-19T02:42:25.922Z,100118.68
2019-05-19T02:44:58.607Z,100110.89
2019-05-19T02:47:31.444Z,100113.08
2019-05-19T02:50:03.489Z,100114.90
2019-05-19T02:52:34.802Z,100104.84
2019-05-19T02:55:06.328Z,100099.08
2019-05-19T02:57:38.233Z,100096.22
2019-05-19T03:00:10.654Z,100099.29
2019-05-19T03:02:41.237Z,100101.17
2019-05-19T03:05:11.969Z,100105.72
2019-05-19T03:07:42.564Z,100106.17
2019-05-19T03:10:13.600Z,100108.10
2019-05-19T03:12:44.171Z,100099.33
2019-05-19T03:15:14.754Z,100100.71
2019-05-19T03:17:45.438Z,100103.11
2019-05-19T03:20:16.005Z,100096.36
2019-05-19T03:22:46.600Z,100104.41
2019-05-19T03:25:17.311Z,100113.58
2019-05-19T03:27:47.961Z,100104.68
2019-05-19T03:30:36.413Z,100106.23
2019-05-19T03:33:11.593Z,100108.94
2019-05-19T03:35:42.170Z,100108.75
2019-05-19T03:38:12.735Z,100110.08
2019-05-19T03:40:43.324Z,100118.60
2019-05-19T03:43:13.998Z,100111.21
2019-05-19T03:45:44.578Z,100108.88
2019-05-19T03:48:15.184Z,100111.80
2019-05-19T03:50:45.767Z,100101.88
2019-05-19T03:53:16.375Z,100105.98
2019-05-19T03:55:46.972Z,100105.33
2019-05-19T03:58:17.542Z,100106.36
2019-05-19T04:00:48.171Z,100109.86
2019-05-19T04:03:18.747Z,100111.19
2019-05-19T04:05:49.325Z,100114.82
2019-05-19T04:08:19.904Z,100116.20
2019-05-19T04:10:50.492Z,100117.83
2019-05-19T04:13:21.087Z,100121.36
2019-05-19T04:15:51.695Z,100126.64
2019-05-19T04:18:22.307Z,100119.78
2019-05-19T04:20:53.090Z,100119.50
2019-05-19T04:23:23.696Z,100129.63
2019-05-19T04:25:54.389Z,100127.05
2019-05-19T04:28:24.958Z,100121.33
2019-05-19T04:30:55.543Z,100127.02
2019-05-19T04:33:26.155Z,100127.30
2019-05-19T04:35:57.722Z,100128.16
2019-05-19T04:38:28.490Z,100138.92
2019-05-19T04:40:59.421Z,100139.16
2019-05-19T04:43:30.245Z,100136.41
2019-05-19T04:46:00.810Z,100151.20
2019-05-19T04:48:31.587Z,100136.98
2019-05-19T04:51:03.810Z,100146.25
2019-05-19T04:53:35.076Z,100151.30
2019-05-19T04:56:05.689Z,100143.63
2019-05-19T04:58:36.277Z,100143.11
2019-05-19T05:01:07.117Z,100132.15
2019-05-19T05:03:37.767Z,100123.92
2019-05-19T05:06:08.526Z,100129.11
2019-05-19T05:08:39.471Z,100122.27
2019-05-19T05:11:10.099Z,100106.38
2019-05-19T05:13:41.433Z,100100.26
2019-05-19T05:16:12.060Z,100093.94
2019-05-19T05:18:43.417Z,100100.20
2019-05-19T05:21:15.152Z,100097.03
2019-05-19T05:23:45.858Z,100081.19
2019-05-19T05:26:16.477Z,100080.77
2019-05-19T05:28:47.072Z,100084.25
2019-05-19T05:31:17.770Z,100079.92
2019-05-19T05:33:49.531Z,100089.70
2019-05-19T05:36:20.169Z,100092.80
2019-05-19T05:38:51.012Z,100093.06
2019-05-19T05:41:21.603Z,100086.77
2019-05-19T05:43:52.192Z,100091.13
2019-05-19T05:46:22.909Z,100098.79
2019-05-19T05:48:54.621Z,100089.54
2019-05-19T05:51:25.218Z,100080.86
2019-05-19T05:53:55.810Z,100080.19
2019-05-19T05:56:26.445Z,100085.33
2019-05-19T05:58:57.195Z,100090.16
2019-05-19T06:01:28.186Z,100081.70
2019-05-19T06:03:59.718Z,100079.17
2019-05-19T06:06:30.833Z,100083.17
2019-05-19T06:09:05.299Z,100124.41
2019-05-19T06:11:35.993Z,100103.52
2019-05-19T06:14:07.014Z,100102.98
2019-05-19T06:16:38.595Z,100100.86
2019-05-19T06:19:09.314Z,100093.38
2019-05-19T06:21:39.914Z,100103.04
2019-05-19T06:24:10.548Z,100085.58
2019-05-19T06:26:41.866Z,100091.85
2019-05-19T06:29:12.634Z,100085.73
2019-05-19T06:31:43.655Z,100081.53
2019-05-19T06:34:14.675Z,100080.06
2019-05-19T06:36:45.607Z,100067.08
2019-05-19T06:39:17.018Z,100062.47
2019-05-19T06:41:48.437Z,100066.47
2019-05-19T06:44:19.167Z,100060.30
2019-05-19T06:46:50.525Z,100054.72
2019-05-19T06:49:21.793Z,100053.80
2019-05-19T06:51:52.493Z,100053.80
2019-05-19T06:54:23.123Z,100063.48
2019-05-19T06:56:53.856Z,100068.20
2019-05-19T06:59:24.421Z,100092.62
2019-05-19T07:01:55.033Z,100146.41
2019-05-19T07:04:26.244Z,100130.89
2019-05-19T07:06:57.679Z,100160.62
2019-05-19T07:09:30.259Z,100163.56
2019-05-19T07:12:01.655Z,100170.36
2019-05-19T07:14:32.425Z,100177.77
2019-05-19T07:17:03.284Z,100180.22
2019-05-19T07:19:34.351Z,100165.80
2019-05-19T07:22:05.234Z,100154.20
2019-05-19T07:24:36.515Z,100141.11
2019-05-19T07:27:08.749Z,100122.64
2019-05-19T07:29:39.885Z,100108.03
2019-05-19T07:32:11.339Z,100105.59
2019-05-19T07:34:42.298Z,100098.55
2019-05-19T07:37:13.394Z,100097.94
2019-05-19T07:39:44.364Z,100108.91
2019-05-19T07:42:15.196Z,100112.41
2019-05-19T07:44:47.237Z,100105.92
2019-05-19T07:47:18.354Z,100105.84
2019-05-19T07:49:49.250Z,100107.55
2019-05-19T07:52:20.677Z,100099.31
2019-05-19T07:54:51.278Z,100093.91
2019-05-19T07:57:22.433Z,100105.02
2019-05-19T07:59:53.364Z,100095.48
2019-05-19T08:02:23.982Z,100109.00
2019-05-19T08:04:55.000Z,100114.70
2019-05-19T08:07:25.732Z,100106.19
2019-05-19T08:09:56.284Z,100112.05
2019-05-19T08:12:27.202Z,100101.94
2019-05-19T08:14:57.959Z,100089.62
2019-05-19T08:17:28.846Z,100087.77
2019-05-19T08:19:59.416Z,100082.49
2019-05-19T08:22:29.985Z,100088.30
2019-05-19T08:25:01.650Z,100079.32
2019-05-19T08:27:32.727Z,100074.28
2019-05-19T08:30:05.332Z,100079.99
2019-05-19T08:32:35.899Z,100071.98
2019-05-19T08:35:07.302Z,100069.34
2019-05-19T08:37:37.980Z,100068.61
2019-05-19T08:40:09.028Z,100076.98
2019-05-19T08:42:39.597Z,100079.91
2019-05-19T08:45:11.203Z,100080.52
2019-05-19T08:47:42.260Z,100085.33
2019-05-19T08:50:14.431Z,100086.20
2019-05-19T08:52:45.777Z,100078.47
2019-05-19T08:55:17.392Z,100082.38
2019-05-19T08:57:48.106Z,100083.05
2019-05-19T09:00:19.857Z,100085.41
2019-05-19T09:02:50.433Z,100084.34
2019-05-19T09:05:21.324Z,100091.94
2019-05-19T09:07:52.387Z,100093.19
2019-05-19T09:10:23.223Z,100096.13
2019-05-19T09:12:54.359Z,100088.32
2019-05-19T09:15:25.146Z,100089.20
2019-05-19T09:17:55.938Z,100089.27
2019-05-19T09:20:26.602Z,100086.88
2019-05-19T09:22:57.620Z,100086.01
2019-05-19T09:25:28.384Z,100087.06
2019-05-19T09:27:59.112Z,100090.74
2019-05-19T09:30:29.832Z,100088.66
2019-05-19T09:33:00.449Z,100088.52
2019-05-19T09:35:31.276Z,100082.55
2019-05-19T09:38:03.603Z,100084.36
2019-05-19T09:40:34.681Z,100085.09
2019-05-19T09:43:05.528Z,100088.77
2019-05-19T09:45:36.059Z,100078.17
2019-05-19T09:48:06.734Z,100078.88
2019-05-19T09:50:37.514Z,100082.58
2019-05-19T09:53:08.252Z,100074.28
2019-05-19T09:55:39.039Z,100082.95
2019-05-19T09:58:09.728Z,100076.75
2019-05-19T10:00:40.307Z,100082.59
2019-05-19T10:03:11.417Z,100084.52
2019-05-19T10:05:42.218Z,100079.73
2019-05-19T10:08:13.492Z,100076.09
2019-05-19T10:10:56.959Z,100066.38
2019-05-19T10:13:28.259Z,100075.27
2019-05-19T10:15:59.173Z,100066.97
2019-05-19T10:18:30.394Z,100064.59
2019-05-19T10:21:01.226Z,100070.02
2019-05-19T10:23:32.098Z,100060.48
2019-05-19T10:26:02.802Z,100066.45
2019-05-19T10:28:33.478Z,100064.55
2019-05-19T10:31:04.426Z,100060.48
2019-05-19T10:33:35.434Z,100052.26
2019-05-19T10:36:07.523Z,100049.98
2019-05-19T10:38:38.170Z,100048.17
2019-05-19T10:41:08.953Z,100041.59
2019-05-19T10:43:39.967Z,100045.20
2019-05-19T10:46:10.765Z,100047.44
2019-05-19T10:48:43.501Z,100043.91
2019-05-19T10:51:15.811Z,100043.59
2019-05-19T10:53:46.578Z,100033.13
2019-05-19T10:56:19.138Z,100028.11
2019-05-19T10:58:51.299Z,100030.00
2019-05-19T11:01:22.120Z,100030.10
2019-05-19T11:03:53.127Z,100027.66
2019-05-19T11:06:24.080Z,100029.80
2019-05-19T11:08:55.231Z,100027.28
2019-05-19T11:11:26.642Z,100017.97
2019-05-19T11:13:57.800Z,100013.98
2019-05-19T11:16:28.882Z,100014.52
2019-05-19T11:19:01.587Z,100011.62
2019-05-19T11:21:32.334Z,100015.00
2019-05-19T11:24:03.344Z,100014.16
2019-05-19T11:26:34.751Z,100008.33
2019-05-19T11:29:06.152Z,100007.38
2019-05-19T11:31:37.025Z,100010.61
2019-05-19T11:34:08.498Z,100003.07
2019-05-19T11:36:39.387Z,99996.47
2019-05-19T11:39:10.206Z,99998.09
2019-05-19T11:41:41.369Z,99996.04
2019-05-19T11:44:12.713Z,100001.03
2019-05-19T11:46:43.498Z,99993.47
2019-05-19T11:49:14.748Z,99983.84
2019-05-19T11:51:45.717Z,99985.11
2019-05-19T11:54:17.470Z,99980.51
2019-05-19T11:56:48.091Z,99989.52
2019-05-19T11:59:18.748Z,99989.36
2019-05-19T12:01:49.319Z,99983.69
2019-05-19T12:04:20.147Z,99977.30
2019-05-19T12:06:50.913Z,99977.08
2019-05-19T12:09:21.534Z,99965.70
2019-05-19T12:11:52.085Z,99977.13
2019-05-19T12:14:22.658Z,99971.36
2019-05-19T12:16:53.445Z,99966.83
2019-05-19T12:19:26.002Z,99962.13
2019-05-19T12:21:56.607Z,99968.81
2019-05-19T12:24:27.297Z,99965.16
2019-05-19T12:26:58.105Z,99962.73
2019-05-19T12:29:28.839Z,99958.71
2019-05-19T12:32:00.176Z,99956.95
2019-05-19T12:34:32.604Z,99952.11
2019-05-19T12:37:03.843Z,99955.74
2019-05-19T12:39:36.220Z,99949.60
2019-05-19T12:42:07.419Z,99938.87
2019-05-19T12:44:38.540Z,99948.81
2019-05-19T12:47:10.059Z,99934.70
2019-05-19T12:49:58.727Z,99932.83
2019-05-19T12:52:29.843Z,99929.31
2019-05-19T12:55:00.624Z,99927.09
2019-05-19T12:57:32.612Z,99930.34
2019-05-19T13:00:03.363Z,99923.39
2019-05-19T13:02:34.435Z,99918.95
2019-05-19T13:05:06.536Z,99918.50
2019-05-19T13:07:37.293Z,99926.20
2019-05-19T13:10:08.396Z,99921.75
2019-05-19T13:12:39.057Z,99925.67
2019-05-19T13:15:10.185Z,99928.09
2019-05-19T13:17:40.780Z,99923.59
2019-05-19T13:20:12.289Z,99924.00
2019-05-19T13:22:42.947Z,99920.86
2019-05-19T13:25:14.491Z,99924.34
2019-05-19T13:27:45.069Z,99921.46
2019-05-19T13:30:15.886Z,99917.16
2019-05-19T13:32:46.486Z,99912.92
2019-05-19T13:35:17.187Z,99909.95
2019-05-19T13:37:49.646Z,99905.89
2019-05-19T13:40:20.380Z,99905.09
2019-05-19T13:42:50.966Z,99901.83
2019-05-19T13:45:21.749Z,99901.64
2019-05-19T13:47:52.357Z,99907.62
2019-05-19T13:50:24.035Z,99900.52
2019-05-19T13:52:54.684Z,99904.52
2019-05-19T13:55:25.255Z,99899.26
2019-05-19T13:57:55.951Z,99897.88
2019-05-19T14:00:26.692Z,99898.92
2019-05-19T14:02:58.767Z,99893.95
2019-05-19T14:05:29.621Z,99893.67
2019-05-19T14:08:00.737Z,99891.19
2019-05-19T14:10:32.205Z,99887.82
2019-05-19T14:13:04.371Z,99881.02
2019-05-19T14:15:35.094Z,99885.53
2019-05-19T14:18:05.798Z,99893.63
2019-05-19T14:20:36.416Z,99897.62
2019-05-19T14:23:07.157Z,99905.38
2019-05-19T14:25:37.926Z,99908.75
2019-05-19T14:28:08.704Z,99909.45
2019-05-19T14:30:39.282Z,99901.43
2019-05-19T14:33:10.084Z,99894.30
2019-05-19T14:35:40.763Z,99891.67
2019-05-19T14:38:11.337Z,99885.88
2019-05-19T14:40:42.680Z,99882.50
2019-05-19T14:43:14.325Z,99879.05
2019-05-19T14:45:44.913Z,99876.38
2019-05-19T14:48:15.542Z,99866.02
2019-05-19T14:50:46.152Z,99869.95
2019-05-19T14:53:16.712Z,99877.42
2019-05-19T14:55:47.388Z,99881.63
2019-05-19T14:58:17.947Z,99886.91
2019-05-19T15:00:48.522Z,99892.47
2019-05-19T15:03:19.869Z,99893.07
2019-05-19T15:05:50.425Z,99889.98
2019-05-19T15:08:21.005Z,99885.52
2019-05-19T15:10:51.663Z,99876.03
2019-05-19T15:13:22.262Z,99882.20
2019-05-19T15:15:52.798Z,99881.19
2019-05-19T15:18:23.373Z,99884.98
2019-05-19T15:20:53.965Z,99877.59
2019-05-19T15:23:24.580Z,99876.73
2019-05-19T15:25:55.261Z,99886.36
2019-05-19T15:28:25.950Z,99888.82
2019-05-19T15:30:56.636Z,99890.30
2019-05-19T15:33:28.357Z,99892.25
2019-05-19T15:35:58.923Z,99891.02
2019-05-19T15:38:29.548Z,99889.39
2019-05-19T15:41:00.080Z,99895.03
2019-05-19T15:43:30.740Z,99889.38
2019-05-19T15:46:01.344Z,99890.62
2019-05-19T15:48:32.009Z,99900.33
2019-05-19T15:51:04.063Z,99883.88
2019-05-19T15:53:34.641Z,99893.17
2019-05-19T15:56:05.223Z,99894.53
2019-05-19T15:58:36.038Z,99898.79
2019-05-19T16:01:06.616Z,99912.90
2019-05-19T16:03:37.182Z,99908.87
2019-05-19T16:06:07.853Z,99910.22
2019-05-19T16:08:38.437Z,99911.91
2019-05-19T16:11:09.021Z,99912.84
2019-05-19T16:13:40.062Z,99897.70
2019-05-19T16:16:10.622Z,99899.03
2019-05-19T16:18:41.503Z,99901.03
2019-05-19T16:21:13.655Z,99904.49
2019-05-19T16:23:44.402Z,99902.02
2019-05-19T16:26:14.961Z,99903.56
2019-05-19T16:28:45.516Z,99896.68
2019-05-19T16:31:16.141Z,99901.76
2019-05-19T16:33:46.702Z,99903.92
2019-05-19T16:36:17.661Z,99900.18
2019-05-19T16:38:49.065Z,99904.02
2019-05-19T16:41:19.639Z,99911.31
2019-05-19T16:43:50.196Z,99910.63
2019-05-19T16:46:20.798Z,99908.02
2019-05-19T16:48:51.441Z,99915.50
2019-05-19T16:51:22.054Z,99924.11
2019-05-19T16:53:54.437Z,99925.49
2019-05-19T16:56:25.987Z,99920.47
2019-05-19T16:58:56.592Z,99924.52
2019-05-19T17:01:27.388Z,99915.64
2019-05-19T17:04:00.268Z,99915.75
2019-05-19T17:06:32.443Z,99916.69
2019-05-19T17:09:05.707Z,99917.42
2019-05-19T17:11:37.051Z,99916.64
2019-05-19T17:14:08.280Z,99917.42
2019-05-19T17:16:39.426Z,99924.72
2019-05-19T17:19:09.997Z,99925.75
2019-05-19T17:21:41.364Z,99933.69
2019-05-19T17:24:12.782Z,99933.69
2019-05-19T17:26:43.844Z,99934.17
2019-05-19T17:29:14.966Z,99920.88
2019-05-19T17:31:46.506Z,99922.84
2019-05-19T17:34:20.517Z,99901.80
2019-05-19T17:36:52.048Z,99904.13
2019-05-19T17:39:24.147Z,99904.91
2019-05-19T17:41:54.871Z,99908.31
2019-05-19T17:44:26.345Z,99911.08
2019-05-19T17:46:57.668Z,99918.75
2019-05-19T17:49:28.489Z,99922.84
2019-05-19T17:52:00.092Z,99911.08
2019-05-19T17:54:32.270Z,99914.32
2019-05-19T17:57:04.114Z,99912.44
2019-05-19T17:59:36.044Z,99912.41
2019-05-19T18:02:07.169Z,99914.81
2019-05-19T18:04:37.893Z,99907.88
2019-05-19T18:07:08.832Z,99895.23
2019-05-19T18:09:39.781Z,99893.20
2019-05-19T18:12:12.224Z,99891.14
2019-05-19T18:14:43.195Z,99875.17
2019-05-19T18:17:13.952Z,99879.10
2019-05-19T18:19:44.557Z,99870.41
2019-05-19T18:22:15.572Z,99872.47
2019-05-19T18:24:46.489Z,99863.77
2019-05-19T18:27:17.385Z,99861.13
2019-05-19T18:29:49.288Z,99861.23
2019-05-19T18:32:20.596Z,99861.84
2019-05-19T18:34:51.789Z,99868.98
2019-05-19T18:37:25.770Z,99870.92
2019-05-19T18:39:59.155Z,99871.71
2019-05-19T18:42:31.559Z,99870.59
2019-05-19T18:45:02.914Z,99874.42
2019-05-19T18:47:33.643Z,99876.91
2019-05-19T18:50:08.604Z,99872.66
2019-05-19T18:52:39.388Z,99891.66
2019-05-19T18:55:11.957Z,99897.95
2019-05-19T18:57:43.230Z,99907.92
2019-05-19T19:00:16.983Z,99917.47
2019-05-19T19:02:49.644Z,99913.02
2019-05-19T19:05:20.872Z,99916.84
2019-05-19T19:07:55.719Z,99912.79
2019-05-19T19:10:28.401Z,99913.18
2019-05-19T19:12:59.343Z,99920.13
2019-05-19T19:15:30.274Z,99943.79
2019-05-19T19:18:01.542Z,99946.48
2019-05-19T19:20:32.418Z,99946.03
2019-05-19T19:23:05.227Z,99949.05
2019-05-19T19:25:39.553Z,99957.45
2019-05-19T19:28:10.899Z,99947.87
2019-05-19T19:30:43.680Z,99945.41
2019-05-19T19:33:14.780Z,99946.70
2019-05-19T19:35:47.556Z,99941.91
2019-05-19T19:38:18.346Z,99935.05
2019-05-19T19:40:50.407Z,99930.70
2019-05-19T19:43:20.836Z,99929.84
2019-05-19T19:45:54.006Z,99928.02
2019-05-19T19:48:24.883Z,99925.80
2019-05-19T19:50:55.766Z,99929.44
2019-05-19T19:53:26.605Z,99923.28
2019-05-19T19:55:57.384Z,99915.63
2019-05-19T19:58:27.801Z,99912.27
2019-05-19T20:01:01.903Z,99897.51
2019-05-19T20:03:32.561Z,99895.39
2019-05-19T20:06:06.682Z,99899.72
2019-05-19T20:08:37.858Z,99895.83
2019-05-19T20:11:08.901Z,99880.39
2019-05-19T20:13:42.702Z,99881.55
2019-05-19T20:16:14.503Z,99875.62
2019-05-19T20:18:45.648Z,99874.33
2019-05-19T20:21:16.558Z,99872.80
2019-05-19T20:23:48.028Z,99867.48
2019-05-19T20:26:19.848Z,99870.36
2019-05-19T20:28:50.676Z,99869.91
2019-05-19T20:31:22.307Z,99876.94
2019-05-19T20:33:52.839Z,99878.89
2019-05-19T20:36:24.316Z,99873.81
2019-05-19T20:38:55.460Z,99867.80
2019-05-19T20:41:26.125Z,99867.40
2019-05-19T20:43:57.631Z,99872.88
2019-05-19T20:46:28.484Z,99879.95
2019-05-19T20:49:00.701Z,99883.62
2019-05-19T20:51:33.806Z,99878.36
2019-05-19T20:54:05.307Z,99881.46
2019-05-19T20:56:36.520Z,99884.11
2019-05-19T20:59:07.247Z,99886.50
2019-05-19T21:01:37.936Z,99884.11
2019-05-19T21:04:08.503Z,99880.09
2019-05-19T21:06:39.873Z,99879.83
2019-05-19T21:09:11.355Z,99880.31
2019-05-19T21:11:42.201Z,99878.94
2019-05-19T21:14:12.902Z,99876.11
2019-05-19T21:16:43.638Z,99875.80
2019-05-19T21:19:14.633Z,99872.70
2019-05-19T21:21:45.207Z,99869.56
2019-05-19T21:24:15.913Z,99869.17
2019-05-19T21:26:46.633Z,99871.37
2019-05-19T21:29:17.204Z,99870.84
2019-05-19T21:31:47.871Z,99872.84
2019-05-19T21:34:18.449Z,99867.22
2019-05-19T21:36:49.970Z,99863.37
2019-05-19T21:39:21.674Z,99858.91
2019-05-19T21:41:52.257Z,99863.33
2019-05-19T21:44:22.816Z,99865.94
2019-05-19T21:46:53.388Z,99866.28
2019-05-19T21:49:23.964Z,99868.94
2019-05-19T21:51:54.678Z,99875.77
2019-05-19T21:54:25.383Z,99876.39
2019-05-19T21:56:56.041Z,99872.41
2019-05-19T21:59:27.875Z,99881.22
2019-05-19T22:01:59.083Z,99878.60
2019-05-19T22:04:29.743Z,99876.42
2019-05-19T22:07:01.945Z,99882.46
2019-05-19T22:09:32.530Z,99882.39
2019-05-19T22:12:04.616Z,99882.70
2019-05-19T22:14:35.315Z,99886.14
2019-05-19T22:17:06.083Z,99886.98
2019-05-19T22:19:36.666Z,99883.11
2019-05-19T22:22:07.322Z,99888.91
2019-05-19T22:24:38.274Z,99888.92
2019-05-19T22:27:08.996Z,99887.67
2019-05-19T22:29:39.681Z,99888.22
2019-05-19T22:32:10.230Z,99884.95
2019-05-19T22:34:40.812Z,99885.48
2019-05-19T22:37:11.382Z,99881.27
2019-05-19T22:39:41.949Z,99886.52
2019-05-19T22:42:12.611Z,99882.44
2019-05-19T22:44:43.261Z,99884.73
2019-05-19T22:47:14.105Z,99876.64
2019-05-19T22:49:44.886Z,99884.46
2019-05-19T22:52:16.612Z,99882.97
2019-05-19T22:54:47.173Z,99880.12
2019-05-19T22:57:18.201Z,99876.11
2019-05-19T22:59:48.880Z,99881.70
2019-05-19T23:02:19.624Z,99874.45
2019-05-19T23:04:50.705Z,99873.41
2019-05-19T23:07:22.323Z,99871.72
2019-05-19T23:09:53.068Z,99869.83
2019-05-19T23:12:23.902Z,99879.72
2019-05-19T23:14:54.576Z,99874.45
2019-05-19T23:17:25.243Z,99878.78
2019-05-19T23:19:58.000Z,99876.58
2019-05-19T23:22:28.787Z,99865.22
2019-05-19T23:24:59.585Z,99861.23
2019-05-19T23:27:30.343Z,99871.75
2019-05-19T23:30:01.026Z,99868.60
2019-05-19T23:32:31.759Z,99874.49
2019-05-19T23:35:05.335Z,99867.23
2019-05-19T23:37:35.903Z,99869.55
2019-05-19T23:40:08.979Z,99874.49
2019-05-19T23:42:40.431Z,99865.45
2019-05-19T23:45:11.377Z,99868.28
2019-05-19T23:47:42.036Z,99876.06
2019-05-19T23:50:13.638Z,99875.11
2019-05-19T23:52:44.593Z,99874.05
2019-05-19T23:55:15.233Z,99867.02
2019-05-19T23:57:45.781Z,99869.95
